Time;durP1;ratioP1;P1;durP2;ratioP2;P2;SDS_P1;SDS_P2;PMS_P1;PMS_P2;Temp;Humidity;BMP_temperature;BMP_pressure;BME280_temperature;BME280_humidity;BME280_pressure;Samples;Min_cycle;Max_cycle;Signal;HPM_P1;HPM_P2
2023/10/17 00:02:19;;;;;;;;;;;;;;;20.82;58.58;101705.22;5039351;28;6160;-71
2023/10/17 00:04:46;;;;;;;;;;;;;;;20.82;58.45;101696.56;5039536;28;2111;-70
2023/10/17 00:07:12;;;;;;;;;;;;;;;20.82;58.47;101702.31;5039234;28;2196;-71
2023/10/17 00:09:39;;;;;;;;;;;;;;;20.81;58.42;101706.56;5037706;28;2149;-71
2023/10/17 00:12:25;;;;;;;;;;;;;;;20.80;58.51;101707.97;5022114;28;2042;-71
2023/10/17 00:17:22;;;;;;;;;;;;;;;20.79;58.64;101706.44;5040906;28;2098;-70
2023/10/17 00:19:51;;;;;;;;;;;;;;;20.79;58.35;101702.84;5009842;28;2101;-71
2023/10/17 00:22:18;;;;;;;;;;;;;;;20.77;58.54;101700.56;5043882;28;2109;-70
2023/10/17 00:24:46;;;;;;;;;;;;;;;20.77;58.65;101711.34;5042486;28;1649;-70
2023/10/17 00:27:13;;;;;;;;;;;;;;;20.76;58.70;101704.09;5042433;28;2312;-70
2023/10/17 00:29:40;;;;;;;;;;;;;;;20.75;58.59;101703.34;5026805;28;2119;-70
2023/10/17 00:32:09;;;;;;;;;;;;;;;20.75;58.58;101696.84;5043091;28;6727;-71
2023/10/17 00:34:36;;;;;;;;;;;;;;;20.73;58.50;101700.38;5024232;28;2048;-71
2023/10/17 00:37:14;;;;;;;;;;;;;;;20.75;58.46;101706.22;5041668;28;2129;-70
2023/10/17 00:39:40;;;;;;;;;;;;;;;20.75;58.40;101700.44;5041405;28;2160;-70
2023/10/17 00:44:41;;;;;;;;;;;;;;;20.75;58.56;101703.34;5039918;28;1906;-70
2023/10/17 00:47:08;;;;;;;;;;;;;;;20.76;58.72;101699.09;5042996;28;2706;-71
2023/10/17 00:49:40;;;;;;;;;;;;;;;20.77;58.77;101697.69;5042599;28;2220;-71
2023/10/17 00:52:16;;;;;;;;;;;;;;;20.77;58.56;101694.81;5022478;28;2184;-71
2023/10/17 00:54:42;;;;;;;;;;;;;;;20.78;58.65;101695.59;5041904;28;1945;-70
2023/10/17 00:57:09;;;;;;;;;;;;;;;20.77;58.90;101696.97;5041851;28;2196;-70
2023/10/17 00:59:36;;;;;;;;;;;;;;;20.78;58.53;101686.94;5040866;28;2244;-70
2023/10/17 01:02:10;;;;;;;;;;;;;;;20.77;58.86;101689.06;5042350;28;6132;-70
2023/10/17 01:04:40;;;;;;;;;;;;;;;20.77;58.60;101694.06;5024144;28;2240;-70
2023/10/17 01:07:07;;;;;;;;;;;;;;;20.76;59.01;101686.84;5040557;28;2002;-70
2023/10/17 01:09:34;;;;;;;;;;;;;;;20.76;58.98;101687.56;5042699;28;2235;-70
2023/10/17 01:12:01;;;;;;;;;;;;;;;20.75;58.78;101686.06;5040161;28;2144;-70
2023/10/17 01:14:32;;;;;;;;;;;;;;;20.75;58.99;101693.97;5025318;28;2102;-70
2023/10/17 01:17:05;;;;;;;;;;;;;;;20.74;58.90;101678.81;5041497;28;2130;-71
2023/10/17 01:19:33;;;;;;;;;;;;;;;20.73;58.86;101679.44;5041623;28;2121;-70
2023/10/17 01:22:00;;;;;;;;;;;;;;;20.72;59.00;101681.56;5042436;28;2144;-70
2023/10/17 01:24:27;;;;;;;;;;;;;;;20.71;58.75;101686.59;5041506;28;2150;-71
2023/10/17 01:26:54;;;;;;;;;;;;;;;20.71;58.90;101680.09;5039505;28;2141;-70
2023/10/17 01:29:21;;;;;;;;;;;;;;;20.71;58.93;101680.09;5035881;28;2130;-71
2023/10/17 01:31:49;;;;;;;;;;;;;;;20.69;58.83;101680.72;5035286;28;6242;-70
2023/10/17 01:34:15;;;;;;;;;;;;;;;20.69;58.88;101677.09;5041345;28;2617;-70
2023/10/17 01:36:44;;;;;;;;;;;;;;;20.68;59.15;101684.22;5023100;28;2153;-70
2023/10/17 01:39:11;;;;;;;;;;;;;;;20.68;59.12;101675.59;5038478;28;2253;-71
2023/10/17 01:41:48;;;;;;;;;;;;;;;20.67;58.77;101674.84;5041718;28;2145;-70
2023/10/17 01:44:15;;;;;;;;;;;;;;;20.67;59.17;101671.22;5023215;28;2205;-70
2023/10/17 01:46:43;;;;;;;;;;;;;;;20.67;59.02;101671.22;5025585;28;2103;-70
2023/10/17 01:49:10;;;;;;;;;;;;;;;20.66;58.92;101678.34;5040189;28;2062;-70
2023/10/17 01:51:37;;;;;;;;;;;;;;;20.65;58.95;101671.09;5036087;28;2233;-70
2023/10/17 01:54:08;;;;;;;;;;;;;;;20.64;59.21;101676.09;5041631;28;2063;-70
2023/10/17 01:56:39;;;;;;;;;;;;;;;20.64;59.12;101681.88;5038168;28;2179;-70
2023/10/17 01:59:25;;;;;;;;;;;;;;;20.64;58.96;101670.34;5020044;28;2259;-70
2023/10/17 02:01:57;;;;;;;;;;;;;;;20.63;59.15;101668.09;5019327;28;6386;-70
2023/10/17 02:04:24;;;;;;;;;;;;;;;20.61;58.95;101662.97;5038446;28;2146;-71
2023/10/17 02:06:51;;;;;;;;;;;;;;;20.61;58.87;101665.09;5038834;28;2225;-70
2023/10/17 02:12:13;;;;;;;;;;;;;;;20.61;59.09;101677.34;5027953;28;2207;-70
2023/10/17 02:14:41;;;;;;;;;;;;;;;20.60;59.36;101675.13;5023380;28;2129;-70
2023/10/17 02:17:09;;;;;;;;;;;;;;;20.59;58.95;101668.63;5039383;28;2197;-69
2023/10/17 02:19:38;;;;;;;;;;;;;;;20.59;59.16;101676.50;5034474;28;2250;-69
2023/10/17 02:22:09;;;;;;;;;;;;;;;20.59;59.11;101664.97;5022750;28;2232;-69
2023/10/17 02:24:36;;;;;;;;;;;;;;;20.59;58.99;101667.84;5038535;28;2000;-68
2023/10/17 02:27:09;;;;;;;;;;;;;;;20.57;59.10;101677.13;5038315;28;2200;-69
2023/10/17 02:29:39;;;;;;;;;;;;;;;20.58;59.23;101672.13;5026982;28;2108;-68
2023/10/17 02:32:11;;;;;;;;;;;;;;;20.57;58.94;101673.50;5039251;28;6275;-69
2023/10/17 02:34:38;;;;;;;;;;;;;;;20.56;58.97;101669.09;5034318;28;2070;-69
2023/10/17 02:37:10;;;;;;;;;;;;;;;20.56;58.78;101669.88;5036873;28;2371;-68
2023/10/17 02:39:37;;;;;;;;;;;;;;;20.55;58.97;101673.34;5038429;28;2039;-69
2023/10/17 02:42:08;;;;;;;;;;;;;;;20.56;58.95;101669.09;5037843;28;2129;-69
2023/10/17 02:44:39;;;;;;;;;;;;;;;20.58;58.95;101675.00;5037740;28;2169;-69
2023/10/17 02:47:12;;;;;;;;;;;;;;;20.58;58.93;101663.50;5017921;28;2169;-69
2023/10/17 02:49:39;;;;;;;;;;;;;;;20.60;58.78;101675.13;5038719;28;2209;-69
2023/10/17 02:52:06;;;;;;;;;;;;;;;20.61;58.58;101676.59;5040707;28;2016;-69
2023/10/17 02:54:46;;;;;;;;;;;;;;;20.63;58.68;101674.59;5037462;28;2121;-69
2023/10/17 02:57:16;;;;;;;;;;;;;;;20.64;58.66;101672.50;5023919;28;1623;-69
2023/10/17 02:59:45;;;;;;;;;;;;;;;20.64;58.49;101678.25;5039567;28;2265;-69
2023/10/17 03:02:11;;;;;;;;;;;;;;;20.65;58.85;101671.09;5020097;28;6645;-69
2023/10/17 03:04:42;;;;;;;;;;;;;;;20.65;58.74;101676.84;5038968;28;2054;-69
2023/10/17 03:07:11;;;;;;;;;;;;;;;20.64;58.52;101664.59;5037892;28;2442;-69
2023/10/17 03:09:39;;;;;;;;;;;;;;;20.64;58.50;101679.00;5040149;28;2173;-69
2023/10/17 03:15:18;;;;;;;;;;;;;;;20.65;58.64;101677.59;5036629;28;2067;-69
2023/10/17 03:17:27;;;;;;;;;;;;;;;20.66;58.66;101672.59;5036446;28;2121;-69
2023/10/17 03:19:57;;;;;;;;;;;;;;;20.67;59.00;101674.09;5035855;28;2203;-69
2023/10/17 03:22:24;;;;;;;;;;;;;;;20.68;58.76;101687.09;5019702;28;2113;-69
2023/10/17 03:24:59;;;;;;;;;;;;;;;20.70;59.11;101684.34;5035768;28;2149;-69
2023/10/17 03:27:47;;;;;;;;;;;;;;;20.68;58.93;101681.34;5017121;28;2289;-69
2023/10/17 03:30:15;;;;;;;;;;;;;;;20.69;58.94;101671.34;5020557;28;6313;-69
2023/10/17 03:33:05;;;;;;;;;;;;;;;20.68;58.82;101679.22;5038435;28;2147;-69
2023/10/17 03:35:35;;;;;;;;;;;;;;;20.70;58.62;101678.59;5039433;28;2098;-69
2023/10/17 03:38:08;;;;;;;;;;;;;;;20.68;58.68;101669.81;5039317;28;2265;-68
2023/10/17 03:40:40;;;;;;;;;;;;;;;20.68;58.71;101659.09;5038671;28;1678;-69
2023/10/17 03:43:14;;;;;;;;;;;;;;;20.70;58.62;101678.59;5037276;28;2105;-69
2023/10/17 03:45:44;;;;;;;;;;;;;;;20.71;58.72;101668.59;5035492;28;2245;-69
2023/10/17 03:48:14;;;;;;;;;;;;;;;20.69;59.22;101665.59;5038722;28;2190;-69
2023/10/17 03:53:28;;;;;;;;;;;;;;;20.71;58.75;101671.47;5020552;28;1969;-68
2023/10/17 03:55:54;;;;;;;;;;;;;;;20.72;59.09;101672.94;5041094;28;2192;-69
2023/10/17 04:00:54;;;;;;;;;;;;;;;20.73;58.80;101677.34;5040068;28;6264;-69
2023/10/17 04:03:25;;;;;;;;;;;;;;;20.73;58.87;101682.31;5026161;28;2143;-69
2023/10/17 04:06:01;;;;;;;;;;;;;;;20.72;58.92;101672.94;5038091;28;2209;-69
2023/10/17 04:08:31;;;;;;;;;;;;;;;20.71;58.79;101680.09;5040656;28;2347;-69
2023/10/17 04:13:43;;;;;;;;;;;;;;;20.70;58.89;101667.81;5044031;28;2125;-69
2023/10/17 04:16:10;;;;;;;;;;;;;;;20.71;58.64;101665.69;5043704;28;2276;-68
2023/10/17 04:18:37;;;;;;;;;;;;;;;20.72;58.62;101675.81;5043567;28;2138;-68
2023/10/17 04:21:17;;;;;;;;;;;;;;;20.73;58.76;101674.47;5041335;28;2270;-69
2023/10/17 04:23:44;;;;;;;;;;;;;;;20.73;58.74;101671.56;5039447;28;2649;-69
2023/10/17 04:26:17;;;;;;;;;;;;;;;20.74;58.85;101686.72;5041780;28;2189;-69
2023/10/17 04:28:49;;;;;;;;;;;;;;;20.74;58.76;101690.34;5041249;28;2113;-68
2023/10/17 04:31:25;;;;;;;;;;;;;;;20.75;59.29;101680.31;5041196;28;6033;-68
2023/10/17 04:33:56;;;;;;;;;;;;;;;20.75;58.91;101676.69;5041311;28;2137;-68
2023/10/17 04:36:23;;;;;;;;;;;;;;;20.75;59.00;101679.56;5043136;28;2161;-69
2023/10/17 04:39:10;;;;;;;;;;;;;;;20.75;59.16;101686.06;5043661;28;1578;-68
2023/10/17 04:41:42;;;;;;;;;;;;;;;20.75;59.13;101688.94;5025815;28;2162;-68
2023/10/17 04:44:15;;;;;;;;;;;;;;;20.74;59.26;101689.59;5042486;28;2173;-69
2023/10/17 04:46:51;;;;;;;;;;;;;;;20.72;59.42;101693.09;5042203;28;2169;-72
2023/10/17 04:49:20;;;;;;;;;;;;;;;20.78;59.58;101696.34;5039124;28;2199;-71
2023/10/17 04:51:53;;;;;;;;;;;;;;;20.74;59.67;101690.34;5043165;28;2300;-70
2023/10/17 04:56:59;;;;;;;;;;;;;;;20.73;59.39;101691.72;5043294;28;2077;-70
2023/10/17 04:59:43;;;;;;;;;;;;;;;20.74;59.22;101687.47;5042758;28;1635;-70
2023/10/17 05:07:34;;;;;;;;;;;;;;;20.77;59.22;101682.56;5025696;28;2135;-70
2023/10/17 06:19:15;;;;;;;;;;;;;;;20.77;59.66;101743.75;5040827;28;2272;-70
2023/10/17 06:27:14;;;;;;;;;;;;;;;20.50;55.24;101747.94;5041415;28;2051;-70
2023/10/17 06:34:33;;;;;;;;;;;;;;;20.42;53.05;101740.94;5040479;28;2163;-70
2023/10/17 06:37:07;;;;;;;;;;;;;;;20.36;52.89;101752.06;5041475;28;2197;-70
2023/10/17 06:39:36;;;;;;;;;;;;;;;20.42;52.02;101750.31;5040402;28;2161;-70
2023/10/17 06:42:15;;;;;;;;;;;;;;;20.41;51.89;101754.56;5041787;28;2105;-70
2023/10/17 06:44:52;;;;;;;;;;;;;;;20.38;51.89;101750.06;5019567;28;2142;-70
2023/10/17 06:47:21;;;;;;;;;;;;;;;20.39;51.22;101757.31;5025212;28;1753;-69
2023/10/17 06:50:17;;;;;;;;;;;;;;;20.36;50.71;101752.81;5040239;28;1910;-70
2023/10/17 06:52:54;;;;;;;;;;;;;;;20.29;50.89;101757.47;5042545;28;1690;-70
2023/10/17 06:55:21;;;;;;;;;;;;;;;20.28;50.66;101766.72;5040186;28;2106;-70
2023/10/17 06:57:51;;;;;;;;;;;;;;;20.27;50.43;101765.19;5018447;28;2194;-70
2023/10/17 07:00:24;;;;;;;;;;;;;;;20.28;49.95;101766.72;5041580;28;6035;-71
2023/10/17 07:02:50;;;;;;;;;;;;;;;20.33;49.83;101771.34;5025531;28;2083;-70
2023/10/17 07:05:23;;;;;;;;;;;;;;;20.22;50.03;101775.69;5041026;28;2309;-70
2023/10/17 07:07:52;;;;;;;;;;;;;;;20.20;49.94;101771.97;5041146;28;1655;-70
2023/10/17 07:10:38;;;;;;;;;;;;;;;20.20;49.64;101772.72;5041369;28;2137;-71
2023/10/17 07:13:23;;;;;;;;;;;;;;;20.18;49.63;101774.72;5041965;28;2106;-70
2023/10/17 07:15:52;;;;;;;;;;;;;;;20.17;49.65;101764.59;5040719;28;2004;-70
2023/10/17 07:23:43;;;;;;;;;;;;;;;20.39;50.92;101779.59;5041140;28;2146;-68
2023/10/17 07:26:31;;;;;;;;;;;;;;;20.36;51.59;101778.69;5041689;28;2100;-67
2023/10/17 07:29:05;;;;;;;;;;;;;;;20.44;51.74;101776.31;5038527;28;2236;-69
2023/10/17 07:31:32;;;;;;;;;;;;;;;20.44;51.65;101772.72;5040446;28;6283;-68
2023/10/17 07:36:37;;;;;;;;;;;;;;;20.44;52.27;101772.72;5042086;28;1766;-67
2023/10/17 07:42:03;;;;;;;;;;;;;;;20.45;52.93;101769.19;5012953;28;1624;-67
2023/10/17 07:44:34;;;;;;;;;;;;;;;20.45;52.85;101760.56;5040147;28;1797;-67
2023/10/17 07:49:35;;;;;;;;;;;;;;;19.34;52.33;101757.94;5023362;28;2161;-68
2023/10/17 07:52:12;;;;;;;;;;;;;;;19.73;53.09;101771.94;5021607;28;2121;-70
2023/10/17 07:54:45;;;;;;;;;;;;;;;19.66;51.94;101762.88;5039189;28;2236;-67
2023/10/17 07:57:17;;;;;;;;;;;;;;;20.04;51.09;101760.19;5039226;28;2165;-67
2023/10/17 07:59:50;;;;;;;;;;;;;;;20.22;51.82;101764.19;5037020;28;2204;-67
2023/10/17 08:02:20;;;;;;;;;;;;;;;20.32;52.31;101766.97;5038762;28;6244;-67
2023/10/17 08:04:48;;;;;;;;;;;;;;;20.37;52.90;101762.97;5039873;28;2182;-67
2023/10/17 08:07:15;;;;;;;;;;;;;;;20.42;52.95;101772.59;5040091;28;2063;-67
2023/10/17 08:09:50;;;;;;;;;;;;;;;20.45;53.25;101765.56;5038499;28;2245;-67
2023/10/17 08:12:21;;;;;;;;;;;;;;;20.47;53.41;101766.44;5040491;28;2138;-67
2023/10/17 08:14:57;;;;;;;;;;;;;;;20.49;53.84;101765.81;5023255;28;2104;-66
2023/10/17 08:17:28;;;;;;;;;;;;;;;20.49;53.79;101763.69;5041478;28;1663;-68
2023/10/17 08:20:00;;;;;;;;;;;;;;;20.50;54.03;101759.44;5041608;28;1785;-75
2023/10/17 08:22:27;;;;;;;;;;;;;;;20.51;54.13;101763.06;5040656;28;1618;-75
2023/10/17 08:24:53;;;;;;;;;;;;;;;20.51;54.35;101754.44;5041539;28;1797;-75
2023/10/17 08:29:49;;;;;;;;;;;;;;;20.54;54.48;101761.78;5040167;28;2145;-75
2023/10/17 08:34:50;;;;;;;;;;;;;;;20.56;54.64;101766.94;5041735;28;1852;-74
2023/10/17 08:37:26;;;;;;;;;;;;;;;20.58;54.73;101767.09;5041306;28;1713;-75
2023/10/17 08:39:53;;;;;;;;;;;;;;;20.58;55.09;101761.34;5042602;28;1830;-74
2023/10/17 08:44:55;;;;;;;;;;;;;;;20.59;55.28;101757.06;5043996;28;1856;-76
2023/10/17 08:47:25;;;;;;;;;;;;;;;20.60;55.31;101755.69;5043520;28;2617;-76
2023/10/17 08:49:55;;;;;;;;;;;;;;;20.59;55.36;101765.69;5043301;28;2158;-76
2023/10/17 08:52:23;;;;;;;;;;;;;;;20.60;55.34;101767.97;5042588;28;2182;-76
2023/10/17 08:54:50;;;;;;;;;;;;;;;20.61;55.49;101768.69;5042489;28;2059;-77
2023/10/17 08:57:17;;;;;;;;;;;;;;;20.57;55.88;101763.47;5042648;28;2126;-75
2023/10/17 09:02:22;;;;;;;;;;;;;;;20.60;56.18;101767.22;5041896;28;7646;-74
2023/10/17 09:04:49;;;;;;;;;;;;;;;20.61;56.08;101769.44;5043730;28;2296;-75
2023/10/17 09:07:22;;;;;;;;;;;;;;;20.61;56.25;101771.56;5044083;28;2091;-76
2023/10/17 09:09:54;;;;;;;;;;;;;;;20.60;56.47;101767.97;5025860;28;2249;-73
2023/10/17 09:12:24;;;;;;;;;;;;;;;20.57;56.18;101777.84;5042630;28;2130;-76
2023/10/17 09:14:52;;;;;;;;;;;;;;;20.00;53.16;101772.22;5041624;28;2158;-72
2023/10/17 09:19:51;;;;;;;;;;;;;;;20.43;54.93;101765.44;5042881;28;2154;-72
2023/10/17 09:22:36;;;;;;;;;;;;;;;20.50;54.94;101770.94;5043052;28;2060;-73
2023/10/17 09:25:12;;;;;;;;;;;;;;;20.55;55.05;101759.66;5025050;28;2197;-72
2023/10/17 09:27:39;;;;;;;;;;;;;;;20.57;55.54;101772.09;5042592;28;2174;-72
2023/10/17 09:30:07;;;;;;;;;;;;;;;20.59;55.89;101759.94;5024667;28;6139;-72
2023/10/17 09:32:35;;;;;;;;;;;;;;;20.60;55.60;101755.69;5024603;28;2115;-72
2023/10/17 09:35:10;;;;;;;;;;;;;;;20.60;55.73;101758.56;5043552;28;2130;-72
2023/10/17 09:37:37;;;;;;;;;;;;;;;20.60;56.02;101762.19;5043176;28;1952;-72
2023/10/17 09:40:11;;;;;;;;;;;;;;;20.60;56.40;101762.19;5040441;28;2205;-72
2023/10/17 09:42:42;;;;;;;;;;;;;;;20.61;55.99;101762.94;5044297;28;2059;-72
2023/10/17 09:45:09;;;;;;;;;;;;;;;20.60;56.16;101770.09;5040805;28;2066;-72
2023/10/17 09:47:57;;;;;;;;;;;;;;;20.61;56.26;101768.69;5041472;28;2067;-72
2023/10/17 09:50:24;;;;;;;;;;;;;;;20.61;56.62;101768.69;5041537;28;2225;-71
2023/10/17 09:52:52;;;;;;;;;;;;;;;20.61;56.40;101760.81;5041949;28;2162;-72
2023/10/17 09:55:19;;;;;;;;;;;;;;;20.62;56.61;101761.56;5025588;28;2044;-72
2023/10/17 09:58:00;;;;;;;;;;;;;;;20.61;56.78;101760.81;5026160;28;1649;-72
2023/10/17 10:00:27;;;;;;;;;;;;;;;20.61;56.67;101769.44;5039862;28;6532;-72
2023/10/17 10:02:54;;;;;;;;;;;;;;;20.60;56.79;101758.56;5042382;28;2190;-72
2023/10/17 10:05:38;;;;;;;;;;;;;;;20.60;56.56;101744.19;5041735;28;2460;-73
2023/10/17 10:08:23;;;;;;;;;;;;;;;20.60;56.36;101749.94;5042151;28;2055;-72
2023/10/17 10:10:51;;;;;;;;;;;;;;;20.60;56.80;101747.06;5042056;28;1910;-72
2023/10/17 10:13:19;;;;;;;;;;;;;;;20.60;56.99;101744.19;5041149;28;2207;-72
2023/10/17 10:15:52;;;;;;;;;;;;;;;20.60;56.89;101747.06;5042281;28;1638;-72
2023/10/17 10:18:36;;;;;;;;;;;;;;;20.59;57.03;101736.91;5042092;28;2083;-72
2023/10/17 10:21:03;;;;;;;;;;;;;;;20.59;57.17;101736.91;5042177;28;2142;-72
2023/10/17 10:23:34;;;;;;;;;;;;;;;20.59;56.97;101736.91;5043008;28;2173;-72
2023/10/17 10:26:19;;;;;;;;;;;;;;;20.58;56.91;101741.94;5042593;28;1707;-73
2023/10/17 10:28:51;;;;;;;;;;;;;;;20.58;57.08;101729.69;5041528;28;2122;-72
2023/10/17 10:31:21;;;;;;;;;;;;;;;20.58;57.00;101729.69;5023827;28;6226;-72
2023/10/17 10:33:48;;;;;;;;;;;;;;;20.58;57.08;101723.91;5039046;28;2153;-72
2023/10/17 10:36:18;;;;;;;;;;;;;;;20.59;57.09;101731.16;5040730;28;2197;-72
2023/10/17 10:38:45;;;;;;;;;;;;;;;20.57;57.21;101728.16;5040371;28;2178;-72
2023/10/17 10:41:13;;;;;;;;;;;;;;;20.58;56.99;101730.41;5040673;28;2070;-72
2023/10/17 10:43:40;;;;;;;;;;;;;;;20.16;52.57;101726.47;5039859;28;2138;-75
2023/10/17 10:46:08;;;;;;;;;;;;;;;19.53;48.44;101720.38;5022223;28;2275;-74
2023/10/17 10:48:34;;;;;;;;;;;;;;;19.36;46.01;101723.59;5039115;28;2150;-75
2023/10/17 10:51:04;;;;;;;;;;;;;;;19.12;44.50;101717.78;5038150;28;2137;-76
2023/10/17 10:53:32;;;;;;;;;;;;;;;19.02;43.70;101711.38;5040555;28;2134;-75
2023/10/17 10:56:02;;;;;;;;;;;;;;;18.92;43.22;101710.69;5022207;28;2172;-75
2023/10/17 10:58:29;;;;;;;;;;;;;;;19.09;43.27;101709.66;5040128;28;2229;-73
2023/10/17 11:01:00;;;;;;;;;;;;;;;19.57;44.83;101714.91;5038540;28;6206;-72
2023/10/17 11:03:27;;;;;;;;;;;;;;;19.90;44.57;101716.94;5039304;28;2248;-72
2023/10/17 11:06:03;;;;;;;;;;;;;;;20.07;46.51;101705.09;5039280;28;2178;-72
2023/10/17 11:08:34;;;;;;;;;;;;;;;20.17;48.52;101715.69;5040571;28;2191;-72
2023/10/17 11:11:01;;;;;;;;;;;;;;;20.23;49.54;101705.31;5040708;28;2083;-73
2023/10/17 11:13:34;;;;;;;;;;;;;;;20.28;49.68;101703.44;5039166;28;2212;-72
2023/10/17 11:16:00;;;;;;;;;;;;;;;20.26;50.54;101700.44;5040443;28;2137;-73
2023/10/17 11:18:28;;;;;;;;;;;;;;;20.35;50.99;101696.66;5040210;28;2244;-72
2023/10/17 11:20:55;;;;;;;;;;;;;;;20.36;51.38;101689.53;5039788;28;2122;-71
2023/10/17 11:23:26;;;;;;;;;;;;;;;20.36;51.84;101685.91;5039377;28;2205;-72
2023/10/17 11:25:53;;;;;;;;;;;;;;;20.38;52.16;101688.91;5023940;28;2139;-78
2023/10/17 11:28:19;;;;;;;;;;;;;;;19.73;47.43;101686.47;5038909;28;2114;-73
2023/10/17 11:30:47;;;;;;;;;;;;;;;19.82;48.93;101684.84;5022110;28;6194;-75
2023/10/17 11:33:29;;;;;;;;;;;;;;;20.06;49.12;101688.44;5037895;28;2218;-72
2023/10/17 11:35:58;;;;;;;;;;;;;;;20.19;51.02;101679.19;5041446;28;2043;-77
2023/10/17 11:38:40;;;;;;;;;;;;;;;19.99;47.63;101672.94;5039815;28;2251;-76
2023/10/17 11:41:10;;;;;;;;;;;;;;;19.69;45.53;101679.72;5026458;28;2190;-76
2023/10/17 11:43:42;;;;;;;;;;;;;;;19.57;43.89;101680.41;5037878;28;2173;-75
2023/10/17 11:46:12;;;;;;;;;;;;;;;19.57;43.19;101680.41;5039334;28;2221;-71
2023/10/17 11:48:43;;;;;;;;;;;;;;;19.75;43.81;101677.97;5039757;28;2189;-70
2023/10/17 11:51:12;;;;;;;;;;;;;;;19.94;44.13;101674.09;5039173;28;2201;-71
2023/10/17 11:53:58;;;;;;;;;;;;;;;20.00;44.47;101668.72;5040024;28;2090;-72
2023/10/17 11:56:26;;;;;;;;;;;;;;;20.11;44.37;101667.19;5039042;28;2146;-71
2023/10/17 11:58:52;;;;;;;;;;;;;;;20.12;44.56;101673.72;5040079;28;2193;-70
2023/10/17 12:01:19;;;;;;;;;;;;;;;20.14;44.81;101665.19;5037340;28;6139;-70
2023/10/17 12:03:45;;;;;;;;;;;;;;;20.14;45.38;101656.56;5039572;28;2170;-70
2023/10/17 12:06:18;;;;;;;;;;;;;;;20.14;45.71;101654.44;5040139;28;2175;-70
2023/10/17 12:08:44;;;;;;;;;;;;;;;20.22;45.83;101654.16;5037975;28;2238;-70
2023/10/17 12:11:11;;;;;;;;;;;;;;;20.21;47.43;101658.44;5039893;28;2141;-70
2023/10/17 12:13:37;;;;;;;;;;;;;;;20.16;47.23;101659.56;5042209;28;2036;-70
2023/10/17 12:16:08;;;;;;;;;;;;;;;20.16;47.74;101653.81;5044280;28;2205;-70
2023/10/17 12:18:35;;;;;;;;;;;;;;;20.05;48.10;101653.19;5041736;28;2146;-70
2023/10/17 12:21:04;;;;;;;;;;;;;;;19.93;47.30;101640.97;5043555;28;2143;-70
2023/10/17 12:23:30;;;;;;;;;;;;;;;19.98;46.77;101648.47;5042945;28;2094;-70
2023/10/17 12:25:57;;;;;;;;;;;;;;;19.88;46.55;101651.47;5042753;28;2095;-70
2023/10/17 12:28:26;;;;;;;;;;;;;;;19.83;45.81;101648.97;5043151;28;2134;-70
2023/10/17 12:30:53;;;;;;;;;;;;;;;19.83;45.48;101648.97;5041721;28;6470;-70
2023/10/17 12:33:23;;;;;;;;;;;;;;;19.66;44.32;101653.69;5042187;28;2154;-69
2023/10/17 12:35:53;;;;;;;;;;;;;;;19.67;43.48;101642.94;5042324;28;2240;-70
2023/10/17 12:38:25;;;;;;;;;;;;;;;19.76;43.25;101652.84;5043303;28;2161;-70
2023/10/17 12:40:53;;;;;;;;;;;;;;;19.66;43.36;101645.06;5042641;28;2169;-70
2023/10/17 12:43:19;;;;;;;;;;;;;;;19.73;43.83;101642.63;5040658;28;2394;-73
2023/10/17 12:45:49;;;;;;;;;;;;;;;19.90;43.88;101642.22;5043865;28;1614;-72
2023/10/17 12:48:16;;;;;;;;;;;;;;;20.01;44.00;101641.44;5044764;28;2173;-72
2023/10/17 12:50:46;;;;;;;;;;;;;;;20.09;44.05;101636.19;5043855;28;1977;-73
2023/10/17 12:53:12;;;;;;;;;;;;;;;20.16;44.16;101645.16;5045043;28;1723;-72
2023/10/17 12:55:39;;;;;;;;;;;;;;;20.19;45.28;101638.94;5044085;28;1805;-72
2023/10/17 12:58:10;;;;;;;;;;;;;;;20.19;46.53;101635.31;5043842;28;1677;-72
2023/10/17 13:00:37;;;;;;;;;;;;;;;20.21;46.86;101632.56;5042552;28;6750;-72
2023/10/17 13:03:06;;;;;;;;;;;;;;;20.22;47.12;101625.41;5043270;28;1662;-72
2023/10/17 13:05:33;;;;;;;;;;;;;;;20.22;47.70;101613.91;5044036;28;1805;-72
2023/10/17 13:08:01;;;;;;;;;;;;;;;20.23;48.22;101616.16;5043504;28;1647;-72
2023/10/17 13:10:28;;;;;;;;;;;;;;;20.23;48.35;101610.41;5042792;28;1891;-72
2023/10/17 13:12:54;;;;;;;;;;;;;;;20.24;48.61;101611.16;5044407;28;1642;-72
2023/10/17 13:15:21;;;;;;;;;;;;;;;20.25;48.56;101618.41;5042888;28;1658;-71
2023/10/17 13:17:52;;;;;;;;;;;;;;;20.26;49.19;101602.66;5043326;28;1852;-73
2023/10/17 13:20:28;;;;;;;;;;;;;;;20.24;49.47;101611.16;5043775;28;1705;-72
2023/10/17 13:23:16;;;;;;;;;;;;;;;20.25;49.74;101606.91;5041805;28;1605;-72
2023/10/17 13:25:43;;;;;;;;;;;;;;;20.26;49.85;101603.38;5042664;28;1622;-72
2023/10/17 13:28:10;;;;;;;;;;;;;;;20.28;50.03;101602.78;5026534;28;1880;-72
2023/10/17 13:30:36;;;;;;;;;;;;;;;20.28;50.54;101603.50;5042610;28;6110;-72
2023/10/17 13:33:03;;;;;;;;;;;;;;;20.26;50.71;101589.00;5043414;28;1614;-72
2023/10/17 13:35:30;;;;;;;;;;;;;;;20.28;50.72;101597.75;5042231;28;1801;-72
2023/10/17 13:37:58;;;;;;;;;;;;;;;20.27;50.91;101592.63;5043697;28;1697;-73
2023/10/17 13:40:25;;;;;;;;;;;;;;;20.28;50.88;101600.63;5043265;28;1717;-72
2023/10/17 13:42:52;;;;;;;;;;;;;;;20.30;51.26;101597.13;5042187;28;1583;-72
2023/10/17 13:45:21;;;;;;;;;;;;;;;20.29;51.14;101599.28;5043585;28;1721;-73
2023/10/17 13:47:50;;;;;;;;;;;;;;;20.29;51.68;101595.63;5043391;28;1605;-72
2023/10/17 13:50:18;;;;;;;;;;;;;;;20.28;51.61;101594.88;5042350;28;1973;-69
2023/10/17 13:52:46;;;;;;;;;;;;;;;20.29;51.95;101601.38;5043142;28;1653;-70
2023/10/17 13:55:14;;;;;;;;;;;;;;;20.22;52.30;101596.66;5042784;28;1686;-70
2023/10/17 13:57:42;;;;;;;;;;;;;;;20.32;51.84;101594.38;5037095;28;2205;-70
2023/10/17 14:00:09;;;;;;;;;;;;;;;20.35;52.05;101593.13;5037185;28;6503;-69
2023/10/17 14:02:36;;;;;;;;;;;;;;;20.30;52.33;101585.63;5037126;28;2123;-70
2023/10/17 14:05:04;;;;;;;;;;;;;;;20.14;50.08;101587.56;5038708;28;2257;-68
2023/10/17 14:07:30;;;;;;;;;;;;;;;19.97;48.27;101589.44;5036011;28;2211;-67
2023/10/17 14:09:58;;;;;;;;;;;;;;;20.09;47.96;101590.19;5038639;28;2664;-68
2023/10/17 14:12:25;;;;;;;;;;;;;;;20.17;46.14;101589.16;5039149;28;2223;-68
2023/10/17 14:14:52;;;;;;;;;;;;;;;20.23;47.10;101589.53;5037473;28;2082;-68
2023/10/17 14:17:20;;;;;;;;;;;;;;;20.26;47.84;101586.13;5040060;28;2131;-68
2023/10/17 14:19:49;;;;;;;;;;;;;;;20.28;48.74;101588.38;5038709;28;2182;-68
2023/10/17 14:22:38;;;;;;;;;;;;;;;20.29;49.37;101589.88;5040991;28;2114;-68
2023/10/17 14:25:06;;;;;;;;;;;;;;;20.28;50.64;101576.88;5039435;28;1642;-72
2023/10/17 14:27:32;;;;;;;;;;;;;;;20.29;50.50;101578.38;5039106;28;2094;-72
2023/10/17 14:29:59;;;;;;;;;;;;;;;20.28;50.74;101574.00;5039534;28;2099;-72
2023/10/17 14:32:29;;;;;;;;;;;;;;;20.29;51.01;101572.63;5036290;28;6372;-72
2023/10/17 14:34:56;;;;;;;;;;;;;;;20.28;51.31;101574.00;5036608;28;2212;-72
2023/10/17 14:37:23;;;;;;;;;;;;;;;20.29;51.32;101572.63;5038577;28;2170;-72
2023/10/17 14:39:52;;;;;;;;;;;;;;;20.29;51.57;101561.13;5038726;28;2117;-71
2023/10/17 14:42:19;;;;;;;;;;;;;;;20.28;51.64;101565.38;5037653;28;2241;-72
2023/10/17 14:44:46;;;;;;;;;;;;;;;20.29;51.70;101572.63;5039118;28;2201;-72
2023/10/17 14:47:14;;;;;;;;;;;;;;;20.29;51.76;101566.88;5038632;28;2167;-72
2023/10/17 14:49:41;;;;;;;;;;;;;;;20.29;51.96;101566.88;5037043;28;2131;-72
2023/10/17 14:52:07;;;;;;;;;;;;;;;20.29;51.95;101566.88;5037818;28;2110;-72
2023/10/17 14:54:36;;;;;;;;;;;;;;;20.29;51.68;101564.75;5036786;28;2181;-72
2023/10/17 14:57:06;;;;;;;;;;;;;;;20.30;51.96;101556.88;5038979;28;2074;-72
2023/10/17 14:59:38;;;;;;;;;;;;;;;20.30;51.75;101554.00;5038066;28;2173;-72
2023/10/17 15:02:05;;;;;;;;;;;;;;;20.30;51.94;101560.50;5037425;28;6635;-72
2023/10/17 15:04:31;;;;;;;;;;;;;;;20.29;52.08;101550.38;5037487;28;2180;-72
2023/10/17 15:06:58;;;;;;;;;;;;;;;20.31;51.91;101561.22;5036023;28;2228;-72
2023/10/17 15:09:26;;;;;;;;;;;;;;;20.30;52.20;101568.38;5036653;28;2082;-72
2023/10/17 15:11:53;;;;;;;;;;;;;;;20.31;52.00;101569.88;5038273;28;2118;-72
2023/10/17 15:14:20;;;;;;;;;;;;;;;20.32;51.96;101565.63;5039120;28;2110;-72
2023/10/17 15:16:47;;;;;;;;;;;;;;;20.30;52.00;101569.13;5038108;28;1976;-72